sensor_id;sensor_type;location;lat;lon;timestamp;temperature;humidity
7598;DHT22;3840;59.32098800;18.06423600;2024-02-26T00:02:15;0.90;99.90
7598;DHT22;3840;59.32098800;18.06423600;2024-02-26T00:04:41;2.20;99.90
7598;DHT22;3840;59.32098800;18.06423600;2024-02-26T00:07:06;0.80;99.90
7598;DHT22;3840;59.32098800;18.06423600;2024-02-26T00:09:32;0.80;99.90
7598;DHT22;3840;59.32098800;18.06423600;2024-02-26T00:12:04;0.80;99.90
7598;DHT22;3840;59.32098800;18.06423600;2024-02-26T00:14:30;0.70;99.90
7598;DHT22;3840;59.32098800;18.06423600;2024-02-26T00:16:56;2.30;99.90
7598;DHT22;3840;59.32098800;18.06423600;2024-02-26T00:19:22;0.80;99.90
7598;DHT22;3840;59.32098800;18.06423600;2024-02-26T00:21:48;0.80;99.90
7598;DHT22;3840;59.32098800;18.06423600;2024-02-26T00:24:13;0.80;99.90
7598;DHT22;3840;59.32098800;18.06423600;2024-02-26T00:26:39;0.80;99.90
7598;DHT22;3840;59.32098800;18.06423600;2024-02-26T00:29:05;0.80;99.90
7598;DHT22;3840;59.32098800;18.06423600;2024-02-26T00:31:30;2.50;99.90
7598;DHT22;3840;59.32098800;18.06423600;2024-02-26T00:33:56;2.10;99.90
7598;DHT22;3840;59.32098800;18.06423600;2024-02-26T00:36:22;0.90;99.90
7598;DHT22;3840;59.32098800;18.06423600;2024-02-26T00:38:47;1.40;99.90
7598;DHT22;3840;59.32098800;18.06423600;2024-02-26T00:41:20;0.90;99.90
7598;DHT22;3840;59.32098800;18.06423600;2024-02-26T00:43:46;0.80;99.90
7598;DHT22;3840;59.32098800;18.06423600;2024-02-26T00:46:11;0.80;99.90
7598;DHT22;3840;59.32098800;18.06423600;2024-02-26T00:48:37;2.50;99.90
7598;DHT22;3840;59.32098800;18.06423600;2024-02-26T00:51:03;0.80;99.90
7598;DHT22;3840;59.32098800;18.06423600;2024-02-26T00:53:33;0.90;99.90
7598;DHT22;3840;59.32098800;18.06423600;2024-02-26T00:55:59;1.40;99.90
7598;DHT22;3840;59.32098800;18.06423600;2024-02-26T00:58:25;1.00;99.90
7598;DHT22;3840;59.32098800;18.06423600;2024-02-26T01:00:51;0.90;99.90
7598;DHT22;3840;59.32098800;18.06423600;2024-02-26T01:03:19;1.00;99.90
7598;DHT22;3840;59.32098800;18.06423600;2024-02-26T01:05:45;1.00;99.90
7598;DHT22;3840;59.32098800;18.06423600;2024-02-26T01:08:11;1.00;99.90
7598;DHT22;3840;59.32098800;18.06423600;2024-02-26T01:10:36;1.20;99.90
7598;DHT22;3840;59.32098800;18.06423600;2024-02-26T01:13:02;1.00;99.90
7598;DHT22;3840;59.32098800;18.06423600;2024-02-26T01:15:28;1.10;99.90
7598;DHT22;3840;59.32098800;18.06423600;2024-02-26T01:17:54;2.30;99.90
7598;DHT22;3840;59.32098800;18.06423600;2024-02-26T01:20:20;2.50;99.90
7598;DHT22;3840;59.32098800;18.06423600;2024-02-26T01:22:45;1.20;99.90
7598;DHT22;3840;59.32098800;18.06423600;2024-02-26T01:25:11;1.10;99.90
7598;DHT22;3840;59.32098800;18.06423600;2024-02-26T01:27:37;1.20;99.90
7598;DHT22;3840;59.32098800;18.06423600;2024-02-26T01:30:07;1.30;99.90
7598;DHT22;3840;59.32098800;18.06423600;2024-02-26T01:32:33;1.40;99.90
7598;DHT22;3840;59.32098800;18.06423600;2024-02-26T01:34:58;1.50;99.90
7598;DHT22;3840;59.32098800;18.06423600;2024-02-26T01:37:24;1.50;99.90
7598;DHT22;3840;59.32098800;18.06423600;2024-02-26T01:39:50;1.60;99.90
7598;DHT22;3840;59.32098800;18.06423600;2024-02-26T01:42:15;1.80;99.90
7598;DHT22;3840;59.32098800;18.06423600;2024-02-26T01:44:41;1.70;99.90
7598;DHT22;3840;59.32098800;18.06423600;2024-02-26T01:47:11;1.70;99.90
7598;DHT22;3840;59.32098800;18.06423600;2024-02-26T01:49:37;1.70;99.90
7598;DHT22;3840;59.32098800;18.06423600;2024-02-26T01:52:06;1.60;99.90
7598;DHT22;3840;59.32098800;18.06423600;2024-02-26T01:54:34;1.70;99.90
7598;DHT22;3840;59.32098800;18.06423600;2024-02-26T01:57:01;1.60;99.90
7598;DHT22;3840;59.32098800;18.06423600;2024-02-26T01:59:27;1.60;99.90
7598;DHT22;3840;59.32098800;18.06423600;2024-02-26T02:01:55;1.60;99.90
7598;DHT22;3840;59.32098800;18.06423600;2024-02-26T02:04:23;3.30;99.90
7598;DHT22;3840;59.32098800;18.06423600;2024-02-26T02:06:50;1.60;99.90
7598;DHT22;3840;59.32098800;18.06423600;2024-02-26T02:09:16;1.60;99.90
7598;DHT22;3840;59.32098800;18.06423600;2024-02-26T02:11:41;1.60;99.90
7598;DHT22;3840;59.32098800;18.06423600;2024-02-26T02:14:07;1.60;99.90
7598;DHT22;3840;59.32098800;18.06423600;2024-02-26T02:16:33;3.20;99.90
7598;DHT22;3840;59.32098800;18.06423600;2024-02-26T02:18:59;1.60;99.90
7598;DHT22;3840;59.32098800;18.06423600;2024-02-26T02:21:25;1.60;99.90
7598;DHT22;3840;59.32098800;18.06423600;2024-02-26T02:23:50;1.70;99.90
7598;DHT22;3840;59.32098800;18.06423600;2024-02-26T02:26:17;3.20;99.90
7598;DHT22;3840;59.32098800;18.06423600;2024-02-26T02:28:45;1.80;99.90
7598;DHT22;3840;59.32098800;18.06423600;2024-02-26T02:31:11;1.70;99.90
7598;DHT22;3840;59.32098800;18.06423600;2024-02-26T02:33:37;1.60;99.90
7598;DHT22;3840;59.32098800;18.06423600;2024-02-26T02:36:03;1.60;99.90
7598;DHT22;3840;59.32098800;18.06423600;2024-02-26T02:38:29;1.60;99.90
7598;DHT22;3840;59.32098800;18.06423600;2024-02-26T02:40:56;1.60;99.90
7598;DHT22;3840;59.32098800;18.06423600;2024-02-26T02:43:21;1.70;99.90
7598;DHT22;3840;59.32098800;18.06423600;2024-02-26T02:45:47;1.60;99.90
7598;DHT22;3840;59.32098800;18.06423600;2024-02-26T02:48:13;1.70;99.90
7598;DHT22;3840;59.32098800;18.06423600;2024-02-26T02:50:39;1.60;99.90
7598;DHT22;3840;59.32098800;18.06423600;2024-02-26T02:53:05;1.70;99.90
7598;DHT22;3840;59.32098800;18.06423600;2024-02-26T02:55:31;1.70;99.90
7598;DHT22;3840;59.32098800;18.06423600;2024-02-26T02:57:56;1.70;99.90
7598;DHT22;3840;59.32098800;18.06423600;2024-02-26T03:00:22;1.80;99.90
7598;DHT22;3840;59.32098800;18.06423600;2024-02-26T03:02:49;1.80;99.90
7598;DHT22;3840;59.32098800;18.06423600;2024-02-26T03:05:15;1.90;99.90
7598;DHT22;3840;59.32098800;18.06423600;2024-02-26T03:07:40;1.70;99.90
7598;DHT22;3840;59.32098800;18.06423600;2024-02-26T03:10:06;1.70;99.90
7598;DHT22;3840;59.32098800;18.06423600;2024-02-26T03:12:34;1.70;99.90
7598;DHT22;3840;59.32098800;18.06423600;2024-02-26T03:15:00;1.70;99.90
7598;DHT22;3840;59.32098800;18.06423600;2024-02-26T03:17:29;1.70;99.90
7598;DHT22;3840;59.32098800;18.06423600;2024-02-26T03:19:54;1.70;99.90
7598;DHT22;3840;59.32098800;18.06423600;2024-02-26T03:22:21;3.20;99.90
7598;DHT22;3840;59.32098800;18.06423600;2024-02-26T03:24:47;1.70;99.90
7598;DHT22;3840;59.32098800;18.06423600;2024-02-26T03:27:13;1.70;99.90
7598;DHT22;3840;59.32098800;18.06423600;2024-02-26T03:29:39;1.70;99.90
7598;DHT22;3840;59.32098800;18.06423600;2024-02-26T03:32:05;2.90;99.90
7598;DHT22;3840;59.32098800;18.06423600;2024-02-26T03:34:32;1.70;99.90
7598;DHT22;3840;59.32098800;18.06423600;2024-02-26T03:37:00;1.80;99.90
7598;DHT22;3840;59.32098800;18.06423600;2024-02-26T03:39:25;1.80;99.90
7598;DHT22;3840;59.32098800;18.06423600;2024-02-26T03:41:51;1.80;99.90
7598;DHT22;3840;59.32098800;18.06423600;2024-02-26T03:44:17;2.50;99.90
7598;DHT22;3840;59.32098800;18.06423600;2024-02-26T03:46:42;1.70;99.90
7598;DHT22;3840;59.32098800;18.06423600;2024-02-26T03:49:08;1.70;99.90
7598;DHT22;3840;59.32098800;18.06423600;2024-02-26T03:51:34;1.60;99.90
7598;DHT22;3840;59.32098800;18.06423600;2024-02-26T03:54:00;1.60;99.90
7598;DHT22;3840;59.32098800;18.06423600;2024-02-26T03:56:26;1.60;99.90
7598;DHT22;3840;59.32098800;18.06423600;2024-02-26T03:58:52;1.50;99.90
7598;DHT22;3840;59.32098800;18.06423600;2024-02-26T04:01:18;1.40;99.90
7598;DHT22;3840;59.32098800;18.06423600;2024-02-26T04:03:44;1.50;99.90
7598;DHT22;3840;59.32098800;18.06423600;2024-02-26T04:06:10;1.60;99.90
7598;DHT22;3840;59.32098800;18.06423600;2024-02-26T04:08:37;1.50;99.90
7598;DHT22;3840;59.32098800;18.06423600;2024-02-26T04:11:03;1.60;99.90
7598;DHT22;3840;59.32098800;18.06423600;2024-02-26T04:13:33;1.70;99.90
7598;DHT22;3840;59.32098800;18.06423600;2024-02-26T04:15:59;1.60;99.90
7598;DHT22;3840;59.32098800;18.06423600;2024-02-26T04:18:27;1.60;99.90
7598;DHT22;3840;59.32098800;18.06423600;2024-02-26T04:20:52;1.60;99.90
7598;DHT22;3840;59.32098800;18.06423600;2024-02-26T04:23:18;1.60;99.90
7598;DHT22;3840;59.32098800;18.06423600;2024-02-26T04:25:44;1.60;99.90
7598;DHT22;3840;59.32098800;18.06423600;2024-02-26T04:28:10;1.60;99.90
7598;DHT22;3840;59.32098800;18.06423600;2024-02-26T04:30:36;1.70;99.90
7598;DHT22;3840;59.32098800;18.06423600;2024-02-26T04:33:02;1.70;99.90
7598;DHT22;3840;59.32098800;18.06423600;2024-02-26T04:35:28;1.70;99.90
7598;DHT22;3840;59.32098800;18.06423600;2024-02-26T04:37:53;1.70;99.90
7598;DHT22;3840;59.32098800;18.06423600;2024-02-26T04:40:19;1.60;99.90
7598;DHT22;3840;59.32098800;18.06423600;2024-02-26T04:42:45;3.20;99.90
7598;DHT22;3840;59.32098800;18.06423600;2024-02-26T04:45:10;2.00;99.90
7598;DHT22;3840;59.32098800;18.06423600;2024-02-26T04:47:36;1.60;99.90
7598;DHT22;3840;59.32098800;18.06423600;2024-02-26T04:50:02;1.60;99.90
7598;DHT22;3840;59.32098800;18.06423600;2024-02-26T04:52:27;1.60;99.90
7598;DHT22;3840;59.32098800;18.06423600;2024-02-26T04:54:53;3.20;99.90
7598;DHT22;3840;59.32098800;18.06423600;2024-02-26T04:57:20;3.30;99.90
7598;DHT22;3840;59.32098800;18.06423600;2024-02-26T04:59:46;1.70;99.90
7598;DHT22;3840;59.32098800;18.06423600;2024-02-26T05:02:12;3.30;99.90
7598;DHT22;3840;59.32098800;18.06423600;2024-02-26T05:04:38;1.70;99.90
7598;DHT22;3840;59.32098800;18.06423600;2024-02-26T05:07:04;1.70;99.90
7598;DHT22;3840;59.32098800;18.06423600;2024-02-26T05:09:29;1.60;99.90
7598;DHT22;3840;59.32098800;18.06423600;2024-02-26T05:11:55;1.60;99.90
7598;DHT22;3840;59.32098800;18.06423600;2024-02-26T05:14:21;1.50;99.90
7598;DHT22;3840;59.32098800;18.06423600;2024-02-26T05:16:47;1.50;99.90
7598;DHT22;3840;59.32098800;18.06423600;2024-02-26T05:19:13;1.50;99.90
7598;DHT22;3840;59.32098800;18.06423600;2024-02-26T05:21:39;1.50;99.90
7598;DHT22;3840;59.32098800;18.06423600;2024-02-26T05:24:06;1.60;99.90
7598;DHT22;3840;59.32098800;18.06423600;2024-02-26T05:26:32;1.70;99.90
7598;DHT22;3840;59.32098800;18.06423600;2024-02-26T05:28:57;1.70;99.90
7598;DHT22;3840;59.32098800;18.06423600;2024-02-26T05:31:25;2.10;99.90
7598;DHT22;3840;59.32098800;18.06423600;2024-02-26T05:33:51;1.60;99.90
7598;DHT22;3840;59.32098800;18.06423600;2024-02-26T05:36:20;1.80;99.90
7598;DHT22;3840;59.32098800;18.06423600;2024-02-26T05:38:48;1.50;99.90
7598;DHT22;3840;59.32098800;18.06423600;2024-02-26T05:41:17;1.50;99.90
7598;DHT22;3840;59.32098800;18.06423600;2024-02-26T05:43:51;1.50;99.90
7598;DHT22;3840;59.32098800;18.06423600;2024-02-26T05:46:17;1.40;99.90
7598;DHT22;3840;59.32098800;18.06423600;2024-02-26T05:48:44;1.40;99.90
7598;DHT22;3840;59.32098800;18.06423600;2024-02-26T05:51:10;1.40;99.90
7598;DHT22;3840;59.32098800;18.06423600;2024-02-26T05:53:35;1.40;99.90
7598;DHT22;3840;59.32098800;18.06423600;2024-02-26T05:56:01;1.40;99.90
7598;DHT22;3840;59.32098800;18.06423600;2024-02-26T05:58:27;1.40;99.90
7598;DHT22;3840;59.32098800;18.06423600;2024-02-26T06:00:52;1.50;99.90
7598;DHT22;3840;59.32098800;18.06423600;2024-02-26T06:03:18;3.10;99.90
7598;DHT22;3840;59.32098800;18.06423600;2024-02-26T06:05:44;2.40;99.90
7598;DHT22;3840;59.32098800;18.06423600;2024-02-26T06:08:09;1.50;99.90
7598;DHT22;3840;59.32098800;18.06423600;2024-02-26T06:10:35;1.50;99.90
7598;DHT22;3840;59.32098800;18.06423600;2024-02-26T06:13:01;2.00;99.90
7598;DHT22;3840;59.32098800;18.06423600;2024-02-26T06:15:26;2.50;99.90
7598;DHT22;3840;59.32098800;18.06423600;2024-02-26T06:17:52;1.60;99.90
7598;DHT22;3840;59.32098800;18.06423600;2024-02-26T06:20:18;1.60;99.90
7598;DHT22;3840;59.32098800;18.06423600;2024-02-26T06:22:43;1.60;99.90
7598;DHT22;3840;59.32098800;18.06423600;2024-02-26T06:25:10;1.60;99.90
7598;DHT22;3840;59.32098800;18.06423600;2024-02-26T06:27:36;1.60;99.90
7598;DHT22;3840;59.32098800;18.06423600;2024-02-26T06:30:01;1.60;99.90
7598;DHT22;3840;59.32098800;18.06423600;2024-02-26T06:32:28;1.60;99.90
7598;DHT22;3840;59.32098800;18.06423600;2024-02-26T06:34:55;1.60;99.90
7598;DHT22;3840;59.32098800;18.06423600;2024-02-26T06:37:20;1.50;99.90
7598;DHT22;3840;59.32098800;18.06423600;2024-02-26T06:39:46;1.50;99.90
7598;DHT22;3840;59.32098800;18.06423600;2024-02-26T06:42:12;1.50;99.90
7598;DHT22;3840;59.32098800;18.06423600;2024-02-26T06:44:37;1.20;99.90
7598;DHT22;3840;59.32098800;18.06423600;2024-02-26T06:47:03;3.20;99.90
7598;DHT22;3840;59.32098800;18.06423600;2024-02-26T06:49:29;1.50;99.90
7598;DHT22;3840;59.32098800;18.06423600;2024-02-26T06:51:55;1.60;99.90
7598;DHT22;3840;59.32098800;18.06423600;2024-02-26T06:54:20;1.60;99.90
7598;DHT22;3840;59.32098800;18.06423600;2024-02-26T06:56:46;1.60;99.90
7598;DHT22;3840;59.32098800;18.06423600;2024-02-26T06:59:12;2.70;99.90
7598;DHT22;3840;59.32098800;18.06423600;2024-02-26T07:01:41;1.60;99.90
7598;DHT22;3840;59.32098800;18.06423600;2024-02-26T07:04:07;1.60;99.90
7598;DHT22;3840;59.32098800;18.06423600;2024-02-26T07:06:32;1.60;99.90
7598;DHT22;3840;59.32098800;18.06423600;2024-02-26T07:08:58;1.70;99.90
7598;DHT22;3840;59.32098800;18.06423600;2024-02-26T07:11:24;1.70;99.90
7598;DHT22;3840;59.32098800;18.06423600;2024-02-26T07:13:49;1.80;99.90
7598;DHT22;3840;59.32098800;18.06423600;2024-02-26T07:16:15;1.90;99.90
7598;DHT22;3840;59.32098800;18.06423600;2024-02-26T07:18:41;1.90;99.90
7598;DHT22;3840;59.32098800;18.06423600;2024-02-26T07:21:09;2.10;99.90
7598;DHT22;3840;59.32098800;18.06423600;2024-02-26T07:23:34;2.00;99.90
7598;DHT22;3840;59.32098800;18.06423600;2024-02-26T07:26:00;1.90;99.90
7598;DHT22;3840;59.32098800;18.06423600;2024-02-26T07:28:26;2.00;99.90
7598;DHT22;3840;59.32098800;18.06423600;2024-02-26T07:30:51;2.00;99.90
7598;DHT22;3840;59.32098800;18.06423600;2024-02-26T07:33:17;2.10;99.90
7598;DHT22;3840;59.32098800;18.06423600;2024-02-26T07:35:44;2.10;99.90
7598;DHT22;3840;59.32098800;18.06423600;2024-02-26T07:38:10;2.20;99.90
7598;DHT22;3840;59.32098800;18.06423600;2024-02-26T07:40:35;2.90;99.90
7598;DHT22;3840;59.32098800;18.06423600;2024-02-26T07:43:01;2.20;99.90
7598;DHT22;3840;59.32098800;18.06423600;2024-02-26T07:45:27;2.20;99.90
7598;DHT22;3840;59.32098800;18.06423600;2024-02-26T07:47:53;2.20;99.90
7598;DHT22;3840;59.32098800;18.06423600;2024-02-26T07:50:19;2.20;99.90
7598;DHT22;3840;59.32098800;18.06423600;2024-02-26T07:52:45;2.10;99.90
7598;DHT22;3840;59.32098800;18.06423600;2024-02-26T07:55:10;2.30;99.90
7598;DHT22;3840;59.32098800;18.06423600;2024-02-26T07:57:36;0.60;99.90
7598;DHT22;3840;59.32098800;18.06423600;2024-02-26T08:00:03;2.10;99.90
7598;DHT22;3840;59.32098800;18.06423600;2024-02-26T08:02:29;2.10;99.90
7598;DHT22;3840;59.32098800;18.06423600;2024-02-26T08:04:55;2.10;99.90
7598;DHT22;3840;59.32098800;18.06423600;2024-02-26T08:07:20;2.20;99.90
7598;DHT22;3840;59.32098800;18.06423600;2024-02-26T08:09:47;2.20;99.90
7598;DHT22;3840;59.32098800;18.06423600;2024-02-26T08:12:13;2.20;99.90
7598;DHT22;3840;59.32098800;18.06423600;2024-02-26T08:14:39;2.50;99.90
7598;DHT22;3840;59.32098800;18.06423600;2024-02-26T08:17:05;2.30;99.90
7598;DHT22;3840;59.32098800;18.06423600;2024-02-26T08:19:30;2.30;99.90
7598;DHT22;3840;59.32098800;18.06423600;2024-02-26T08:21:56;2.50;99.90
7598;DHT22;3840;59.32098800;18.06423600;2024-02-26T08:24:23;2.30;99.90
7598;DHT22;3840;59.32098800;18.06423600;2024-02-26T08:26:48;2.30;99.90
7598;DHT22;3840;59.32098800;18.06423600;2024-02-26T08:29:14;2.50;99.90
7598;DHT22;3840;59.32098800;18.06423600;2024-02-26T08:31:40;2.60;99.90
7598;DHT22;3840;59.32098800;18.06423600;2024-02-26T08:34:06;2.60;99.90
7598;DHT22;3840;59.32098800;18.06423600;2024-02-26T08:36:33;2.70;99.90
7598;DHT22;3840;59.32098800;18.06423600;2024-02-26T08:38:59;2.70;99.90
7598;DHT22;3840;59.32098800;18.06423600;2024-02-26T08:41:25;2.60;99.90
7598;DHT22;3840;59.32098800;18.06423600;2024-02-26T08:43:51;2.60;99.90
7598;DHT22;3840;59.32098800;18.06423600;2024-02-26T08:46:17;2.80;99.90
7598;DHT22;3840;59.32098800;18.06423600;2024-02-26T08:48:42;3.00;99.90
7598;DHT22;3840;59.32098800;18.06423600;2024-02-26T08:51:09;3.30;99.90
7598;DHT22;3840;59.32098800;18.06423600;2024-02-26T08:53:36;3.40;99.90
7598;DHT22;3840;59.32098800;18.06423600;2024-02-26T08:56:02;3.20;99.90
7598;DHT22;3840;59.32098800;18.06423600;2024-02-26T08:58:28;3.00;99.90
7598;DHT22;3840;59.32098800;18.06423600;2024-02-26T09:00:55;3.20;99.90
7598;DHT22;3840;59.32098800;18.06423600;2024-02-26T09:03:21;3.30;99.90
7598;DHT22;3840;59.32098800;18.06423600;2024-02-26T09:05:47;3.20;99.90
7598;DHT22;3840;59.32098800;18.06423600;2024-02-26T09:08:13;3.20;99.90
7598;DHT22;3840;59.32098800;18.06423600;2024-02-26T09:10:39;3.20;99.90
7598;DHT22;3840;59.32098800;18.06423600;2024-02-26T09:13:05;3.00;99.90
7598;DHT22;3840;59.32098800;18.06423600;2024-02-26T09:15:31;2.90;99.90
7598;DHT22;3840;59.32098800;18.06423600;2024-02-26T09:17:57;3.00;99.90
7598;DHT22;3840;59.32098800;18.06423600;2024-02-26T09:20:22;3.00;99.90
7598;DHT22;3840;59.32098800;18.06423600;2024-02-26T09:22:49;2.90;99.90
7598;DHT22;3840;59.32098800;18.06423600;2024-02-26T09:25:16;2.90;99.90
7598;DHT22;3840;59.32098800;18.06423600;2024-02-26T09:27:42;2.90;99.90
7598;DHT22;3840;59.32098800;18.06423600;2024-02-26T09:30:12;2.90;99.90
7598;DHT22;3840;59.32098800;18.06423600;2024-02-26T09:32:38;2.80;99.90
7598;DHT22;3840;59.32098800;18.06423600;2024-02-26T09:35:07;2.90;99.90
7598;DHT22;3840;59.32098800;18.06423600;2024-02-26T09:37:33;3.00;99.90
7598;DHT22;3840;59.32098800;18.06423600;2024-02-26T09:40:00;3.00;99.90
7598;DHT22;3840;59.32098800;18.06423600;2024-02-26T09:42:26;3.10;99.90
7598;DHT22;3840;59.32098800;18.06423600;2024-02-26T09:44:56;3.00;99.90
7598;DHT22;3840;59.32098800;18.06423600;2024-02-26T09:47:25;3.10;99.90
7598;DHT22;3840;59.32098800;18.06423600;2024-02-26T09:49:53;3.20;99.90
7598;DHT22;3840;59.32098800;18.06423600;2024-02-26T09:52:20;3.30;99.90
7598;DHT22;3840;59.32098800;18.06423600;2024-02-26T09:54:47;3.20;99.90
7598;DHT22;3840;59.32098800;18.06423600;2024-02-26T09:57:14;3.30;99.90
7598;DHT22;3840;59.32098800;18.06423600;2024-02-26T09:59:43;3.40;99.90
7598;DHT22;3840;59.32098800;18.06423600;2024-02-26T10:02:13;3.50;99.90
7598;DHT22;3840;59.32098800;18.06423600;2024-02-26T10:04:42;3.60;99.90
7598;DHT22;3840;59.32098800;18.06423600;2024-02-26T10:07:12;3.60;99.90
7598;DHT22;3840;59.32098800;18.06423600;2024-02-26T10:09:39;3.90;99.90
7598;DHT22;3840;59.32098800;18.06423600;2024-02-26T10:12:06;3.90;99.90
7598;DHT22;3840;59.32098800;18.06423600;2024-02-26T10:14:33;4.00;99.90
7598;DHT22;3840;59.32098800;18.06423600;2024-02-26T10:16:59;4.00;99.90
7598;DHT22;3840;59.32098800;18.06423600;2024-02-26T10:19:30;3.90;99.90
7598;DHT22;3840;59.32098800;18.06423600;2024-02-26T10:21:59;4.00;99.90
7598;DHT22;3840;59.32098800;18.06423600;2024-02-26T10:24:29;4.10;99.90
7598;DHT22;3840;59.32098800;18.06423600;2024-02-26T10:26:56;4.20;99.90
7598;DHT22;3840;59.32098800;18.06423600;2024-02-26T10:29:24;4.40;99.90
7598;DHT22;3840;59.32098800;18.06423600;2024-02-26T10:31:53;4.30;99.90
7598;DHT22;3840;59.32098800;18.06423600;2024-02-26T10:34:19;4.40;99.90
7598;DHT22;3840;59.32098800;18.06423600;2024-02-26T10:36:45;4.30;99.90
7598;DHT22;3840;59.32098800;18.06423600;2024-02-26T10:39:15;4.30;99.90
7598;DHT22;3840;59.32098800;18.06423600;2024-02-26T10:41:42;4.20;99.90
7598;DHT22;3840;59.32098800;18.06423600;2024-02-26T10:44:11;4.10;99.90
7598;DHT22;3840;59.32098800;18.06423600;2024-02-26T10:46:40;4.00;99.90
7598;DHT22;3840;59.32098800;18.06423600;2024-02-26T10:49:08;4.00;99.90
7598;DHT22;3840;59.32098800;18.06423600;2024-02-26T10:51:38;4.00;99.90
7598;DHT22;3840;59.32098800;18.06423600;2024-02-26T10:54:04;4.00;99.90
7598;DHT22;3840;59.32098800;18.06423600;2024-02-26T10:56:34;4.00;99.90
7598;DHT22;3840;59.32098800;18.06423600;2024-02-26T10:59:00;4.00;99.90
7598;DHT22;3840;59.32098800;18.06423600;2024-02-26T11:01:27;4.10;99.90
7598;DHT22;3840;59.32098800;18.06423600;2024-02-26T11:03:57;4.00;99.90
7598;DHT22;3840;59.32098800;18.06423600;2024-02-26T11:06:26;4.00;99.90
7598;DHT22;3840;59.32098800;18.06423600;2024-02-26T11:08:52;3.90;99.90
7598;DHT22;3840;59.32098800;18.06423600;2024-02-26T11:11:18;3.90;99.90
7598;DHT22;3840;59.32098800;18.06423600;2024-02-26T11:13:46;3.80;99.90
7598;DHT22;3840;59.32098800;18.06423600;2024-02-26T11:16:18;4.00;99.90
7598;DHT22;3840;59.32098800;18.06423600;2024-02-26T11:18:46;4.00;99.90
7598;DHT22;3840;59.32098800;18.06423600;2024-02-26T11:21:15;4.10;99.90
7598;DHT22;3840;59.32098800;18.06423600;2024-02-26T11:23:42;4.10;99.90
7598;DHT22;3840;59.32098800;18.06423600;2024-02-26T11:26:09;4.10;99.90
7598;DHT22;3840;59.32098800;18.06423600;2024-02-26T11:28:37;4.10;99.90
7598;DHT22;3840;59.32098800;18.06423600;2024-02-26T11:31:04;4.30;99.90
7598;DHT22;3840;59.32098800;18.06423600;2024-02-26T11:33:31;4.40;99.90
7598;DHT22;3840;59.32098800;18.06423600;2024-02-26T11:35:57;4.40;99.90
7598;DHT22;3840;59.32098800;18.06423600;2024-02-26T11:38:26;4.50;99.90
7598;DHT22;3840;59.32098800;18.06423600;2024-02-26T11:40:53;4.50;99.90
7598;DHT22;3840;59.32098800;18.06423600;2024-02-26T11:43:23;4.50;99.90
7598;DHT22;3840;59.32098800;18.06423600;2024-02-26T11:46:28;4.50;99.90
7598;DHT22;3840;59.32098800;18.06423600;2024-02-26T11:49:00;4.50;99.90
7598;DHT22;3840;59.32098800;18.06423600;2024-02-26T11:51:28;4.40;99.90
7598;DHT22;3840;59.32098800;18.06423600;2024-02-26T11:53:54;4.30;99.90
7598;DHT22;3840;59.32098800;18.06423600;2024-02-26T11:56:23;4.30;99.90
7598;DHT22;3840;59.32098800;18.06423600;2024-02-26T11:58:57;6.10;99.90
7598;DHT22;3840;59.32098800;18.06423600;2024-02-26T12:04:05;4.60;99.90
7598;DHT22;3840;59.32098800;18.06423600;2024-02-26T12:06:31;4.60;99.90
7598;DHT22;3840;59.32098800;18.06423600;2024-02-26T12:09:05;4.70;99.90
7598;DHT22;3840;59.32098800;18.06423600;2024-02-26T12:11:31;4.70;99.90
7598;DHT22;3840;59.32098800;18.06423600;2024-02-26T12:13:57;4.60;99.90
7598;DHT22;3840;59.32098800;18.06423600;2024-02-26T12:16:41;4.60;99.90
7598;DHT22;3840;59.32098800;18.06423600;2024-02-26T12:19:10;4.60;99.90
7598;DHT22;3840;59.32098800;18.06423600;2024-02-26T12:21:37;4.70;99.90
7598;DHT22;3840;59.32098800;18.06423600;2024-02-26T12:24:13;4.80;99.90
7598;DHT22;3840;59.32098800;18.06423600;2024-02-26T12:26:40;4.70;99.90
7598;DHT22;3840;59.32098800;18.06423600;2024-02-26T12:29:06;4.70;99.90
7598;DHT22;3840;59.32098800;18.06423600;2024-02-26T12:31:35;4.80;99.90
7598;DHT22;3840;59.32098800;18.06423600;2024-02-26T12:34:04;4.80;99.90
7598;DHT22;3840;59.32098800;18.06423600;2024-02-26T12:36:30;4.80;99.90
7598;DHT22;3840;59.32098800;18.06423600;2024-02-26T12:38:56;4.80;99.90
7598;DHT22;3840;59.32098800;18.06423600;2024-02-26T12:41:22;4.80;99.90
7598;DHT22;3840;59.32098800;18.06423600;2024-02-26T12:43:48;4.80;99.90
7598;DHT22;3840;59.32098800;18.06423600;2024-02-26T12:46:14;4.80;99.90
7598;DHT22;3840;59.32098800;18.06423600;2024-02-26T12:48:43;4.80;99.90
7598;DHT22;3840;59.32098800;18.06423600;2024-02-26T12:51:14;4.80;99.90
7598;DHT22;3840;59.32098800;18.06423600;2024-02-26T12:53:41;4.70;99.90
7598;DHT22;3840;59.32098800;18.06423600;2024-02-26T12:56:10;4.70;99.90
7598;DHT22;3840;59.32098800;18.06423600;2024-02-26T12:58:39;4.70;99.90
7598;DHT22;3840;59.32098800;18.06423600;2024-02-26T13:01:05;4.60;99.90
7598;DHT22;3840;59.32098800;18.06423600;2024-02-26T13:03:33;4.70;99.90
7598;DHT22;3840;59.32098800;18.06423600;2024-02-26T13:06:00;4.70;99.90
7598;DHT22;3840;59.32098800;18.06423600;2024-02-26T13:08:26;4.60;99.90
7598;DHT22;3840;59.32098800;18.06423600;2024-02-26T13:10:52;4.60;99.90
7598;DHT22;3840;59.32098800;18.06423600;2024-02-26T13:13:18;4.70;99.90
7598;DHT22;3840;59.32098800;18.06423600;2024-02-26T13:15:45;4.70;99.90
7598;DHT22;3840;59.32098800;18.06423600;2024-02-26T13:18:13;4.70;99.90
7598;DHT22;3840;59.32098800;18.06423600;2024-02-26T13:20:39;4.70;99.90
7598;DHT22;3840;59.32098800;18.06423600;2024-02-26T13:23:11;4.70;99.90
7598;DHT22;3840;59.32098800;18.06423600;2024-02-26T13:25:37;4.70;99.90
7598;DHT22;3840;59.32098800;18.06423600;2024-02-26T13:28:18;4.80;99.90
7598;DHT22;3840;59.32098800;18.06423600;2024-02-26T13:30:55;4.70;99.90
7598;DHT22;3840;59.32098800;18.06423600;2024-02-26T13:33:27;4.70;99.90
7598;DHT22;3840;59.32098800;18.06423600;2024-02-26T13:35:55;4.60;99.90
7598;DHT22;3840;59.32098800;18.06423600;2024-02-26T13:38:21;4.60;99.90
7598;DHT22;3840;59.32098800;18.06423600;2024-02-26T13:40:47;4.50;99.90
7598;DHT22;3840;59.32098800;18.06423600;2024-02-26T13:43:13;4.50;99.90
7598;DHT22;3840;59.32098800;18.06423600;2024-02-26T13:45:39;4.50;99.90
7598;DHT22;3840;59.32098800;18.06423600;2024-02-26T13:48:08;4.40;99.90